createdAt,value
2022-10-07T00:02:07.454Z,89.10
2022-10-07T00:04:37.779Z,89.22
2022-10-07T00:07:06.539Z,89.36
2022-10-07T00:09:35.222Z,89.45
2022-10-07T00:12:04.071Z,89.26
2022-10-07T00:14:32.720Z,89.06
2022-10-07T00:17:01.612Z,89.11
2022-10-07T00:19:30.389Z,89.11
2022-10-07T00:22:00.505Z,89.21
2022-10-07T00:24:29.301Z,89.07
2022-10-07T00:26:58.009Z,88.91
2022-10-07T00:29:26.759Z,89.05
2022-10-07T00:31:57.384Z,88.96
2022-10-07T00:34:27.041Z,89.10
2022-10-07T00:36:55.890Z,89.25
2022-10-07T00:39:25.865Z,89.39
2022-10-07T00:41:54.634Z,89.35
2022-10-07T00:44:41.977Z,89.23
2022-10-07T00:47:20.353Z,88.94
2022-10-07T00:49:55.347Z,89.00
2022-10-07T00:52:28.057Z,89.18
2022-10-07T00:55:00.556Z,89.17
2022-10-07T00:57:32.209Z,89.21
2022-10-07T01:00:02.185Z,89.23
2022-10-07T01:02:31.547Z,89.35
2022-10-07T01:05:04.374Z,89.23
2022-10-07T01:07:34.246Z,89.23
2022-10-07T01:10:06.003Z,89.08
2022-10-07T01:12:46.266Z,88.92
2022-10-07T01:15:25.846Z,89.12
2022-10-07T01:18:01.433Z,89.12
2022-10-07T01:20:39.600Z,89.14
2022-10-07T01:23:38.116Z,89.06
2022-10-07T01:26:37.256Z,88.86
2022-10-07T01:29:12.424Z,88.85
2022-10-07T01:31:47.375Z,88.74
2022-10-07T01:34:17.574Z,88.77
2022-10-07T01:36:52.337Z,88.69
2022-10-07T01:39:27.543Z,88.69
2022-10-07T01:41:59.124Z,88.48
2022-10-07T01:44:31.048Z,88.59
2022-10-07T01:47:00.600Z,88.47
2022-10-07T01:49:29.437Z,88.21
2022-10-07T01:52:33.505Z,88.19
2022-10-07T01:55:21.307Z,88.32
2022-10-07T01:58:01.042Z,88.43
2022-10-07T02:00:31.427Z,88.31
2022-10-07T02:03:30.293Z,88.57
2022-10-07T02:06:07.810Z,88.48
2022-10-07T02:08:43.608Z,88.46
2022-10-07T02:11:16.575Z,88.28
2022-10-07T02:13:58.726Z,87.68
2022-10-07T02:16:35.844Z,88.00
2022-10-07T02:19:11.236Z,88.18
2022-10-07T02:21:42.444Z,87.97
2022-10-07T02:24:13.576Z,88.04
2022-10-07T02:26:45.280Z,88.02
2022-10-07T02:29:21.266Z,87.82
2022-10-07T02:31:54.038Z,87.84
2022-10-07T02:34:26.616Z,87.78
2022-10-07T02:37:01.147Z,87.51
2022-10-07T02:39:31.417Z,87.27
2022-10-07T02:42:06.017Z,87.33
2022-10-07T02:44:44.282Z,87.35
2022-10-07T02:47:19.037Z,87.42
2022-10-07T02:49:54.049Z,87.45
2022-10-07T02:52:25.028Z,87.50
2022-10-07T02:54:59.758Z,87.39
2022-10-07T02:57:33.365Z,87.14
2022-10-07T03:00:10.062Z,87.17
2022-10-07T03:02:51.740Z,87.22
2022-10-07T03:05:22.016Z,86.91
2022-10-07T03:07:57.093Z,87.01
2022-10-07T03:10:29.258Z,86.83
2022-10-07T03:12:58.776Z,86.91
2022-10-07T03:15:29.026Z,86.97
2022-10-07T03:17:58.756Z,87.03
2022-10-07T03:20:30.386Z,86.97
2022-10-07T03:22:59.598Z,87.02
2022-10-07T03:25:29.145Z,86.71
2022-10-07T03:27:57.958Z,86.53
2022-10-07T03:30:26.527Z,86.51
2022-10-07T03:32:57.607Z,86.75
2022-10-07T03:35:26.664Z,86.28
2022-10-07T03:37:55.415Z,86.50
2022-10-07T03:40:24.177Z,86.38
2022-10-07T03:42:53.476Z,86.31
2022-10-07T03:45:22.269Z,86.35
2022-10-07T03:47:50.827Z,86.45
2022-10-07T03:50:21.045Z,86.06
2022-10-07T03:52:49.798Z,86.34
2022-10-07T03:55:18.887Z,85.96
2022-10-07T03:57:59.139Z,85.90
2022-10-07T04:00:30.057Z,85.77
2022-10-07T04:03:00.195Z,85.97
2022-10-07T04:05:30.388Z,86.21
2022-10-07T04:07:59.098Z,86.16
2022-10-07T04:10:28.576Z,85.71
2022-10-07T04:12:57.487Z,85.92
2022-10-07T04:15:26.098Z,85.76
2022-10-07T04:17:58.833Z,85.93
2022-10-07T04:20:30.236Z,86.33
2022-10-07T04:22:59.235Z,86.01
2022-10-07T04:25:37.548Z,85.90
2022-10-07T04:28:17.522Z,86.26
2022-10-07T04:30:51.583Z,86.58
2022-10-07T04:33:25.845Z,86.33
2022-10-07T04:35:58.487Z,86.03
2022-10-07T04:38:28.550Z,86.19
2022-10-07T04:41:05.678Z,86.57
2022-10-07T04:43:36.248Z,86.08
2022-10-07T04:46:14.450Z,86.22
2022-10-07T04:48:54.058Z,86.18
2022-10-07T04:51:28.460Z,86.16
2022-10-07T04:54:01.137Z,86.31
2022-10-07T04:56:55.858Z,86.75
2022-10-07T04:59:29.938Z,86.62
2022-10-07T05:02:00.142Z,86.62
2022-10-07T05:04:30.439Z,86.64
2022-10-07T05:07:01.818Z,86.48
2022-10-07T05:09:32.408Z,86.32
2022-10-07T05:12:02.127Z,86.19
2022-10-07T05:14:33.150Z,86.91
2022-10-07T05:17:04.425Z,86.44
2022-10-07T05:19:36.371Z,86.95
2022-10-07T05:22:08.100Z,86.45
2022-10-07T05:24:37.641Z,86.36
2022-10-07T05:27:06.289Z,86.46
2022-10-07T05:29:35.294Z,86.99
2022-10-07T05:32:05.253Z,87.03
2022-10-07T05:34:35.049Z,86.52
2022-10-07T05:37:03.819Z,86.78
2022-10-07T05:39:35.026Z,86.94
2022-10-07T05:42:14.057Z,86.82
2022-10-07T05:44:53.097Z,87.34
2022-10-07T05:47:22.420Z,87.64
2022-10-07T05:49:55.198Z,87.62
2022-10-07T05:52:24.178Z,87.92
2022-10-07T05:54:55.399Z,87.84
2022-10-07T05:57:24.776Z,87.99
2022-10-07T05:59:53.425Z,87.95
2022-10-07T06:02:23.721Z,87.97
2022-10-07T06:04:52.772Z,88.17
2022-10-07T06:07:29.104Z,87.98
2022-10-07T06:10:11.259Z,87.96
2022-10-07T06:12:51.371Z,87.83
2022-10-07T06:15:20.019Z,88.00
2022-10-07T06:17:49.959Z,87.92
2022-10-07T06:20:21.129Z,87.97
2022-10-07T06:22:54.220Z,87.74
2022-10-07T06:25:25.083Z,87.59
2022-10-07T06:27:58.357Z,87.74
2022-10-07T06:30:29.651Z,87.58
2022-10-07T06:33:01.219Z,87.41
2022-10-07T06:35:29.950Z,87.30
2022-10-07T06:37:59.485Z,87.44
2022-10-07T06:40:30.199Z,87.72
2022-10-07T06:42:59.437Z,87.88
2022-10-07T06:45:37.382Z,87.81
2022-10-07T06:48:06.138Z,87.59
2022-10-07T06:50:34.928Z,87.95
2022-10-07T06:53:03.860Z,87.82
2022-10-07T06:55:38.125Z,87.54
2022-10-07T06:58:11.603Z,87.53
2022-10-07T07:00:42.351Z,87.37
2022-10-07T07:03:12.896Z,86.66
2022-10-07T07:05:45.433Z,86.97
2022-10-07T07:08:19.417Z,86.01
2022-10-07T07:10:50.355Z,86.03
2022-10-07T07:13:20.050Z,86.15
2022-10-07T07:15:56.429Z,85.40
2022-10-07T07:18:26.929Z,85.75
2022-10-07T07:20:55.407Z,85.48
2022-10-07T07:23:26.695Z,84.76
2022-10-07T07:25:56.868Z,84.93
2022-10-07T07:28:25.496Z,84.98
2022-10-07T07:30:54.264Z,84.65
2022-10-07T07:33:23.019Z,84.34
2022-10-07T07:35:51.726Z,84.23
2022-10-07T07:38:24.798Z,83.87
2022-10-07T07:40:57.420Z,83.98
2022-10-07T07:43:26.648Z,83.61
2022-10-07T07:45:55.577Z,83.46
2022-10-07T07:48:24.424Z,83.72
2022-10-07T07:50:53.090Z,83.03
2022-10-07T07:53:23.211Z,82.56
2022-10-07T07:55:57.999Z,82.41
2022-10-07T07:58:30.295Z,82.22
2022-10-07T08:01:01.307Z,81.98
2022-10-07T08:03:31.157Z,81.53
2022-10-07T08:06:03.310Z,81.62
2022-10-07T08:08:33.643Z,80.94
2022-10-07T08:11:09.933Z,80.44
2022-10-07T08:13:41.501Z,80.67
2022-10-07T08:16:14.788Z,79.86
2022-10-07T08:18:47.298Z,79.55
2022-10-07T08:21:18.965Z,79.15
2022-10-07T08:23:54.617Z,78.74
2022-10-07T08:26:24.875Z,78.64
2022-10-07T08:28:53.664Z,78.27
2022-10-07T08:31:23.328Z,78.15
2022-10-07T08:33:52.075Z,78.26
2022-10-07T08:36:22.975Z,77.64
2022-10-07T08:38:52.001Z,76.93
2022-10-07T08:41:47.650Z,76.50
2022-10-07T08:44:22.905Z,76.18
2022-10-07T08:47:02.501Z,76.28
2022-10-07T08:49:37.758Z,76.05
2022-10-07T08:52:20.842Z,75.56
2022-10-07T08:54:49.726Z,74.94
2022-10-07T08:57:31.714Z,75.28
2022-10-07T09:00:05.790Z,74.73
2022-10-07T09:02:44.342Z,74.33
2022-10-07T09:05:21.466Z,74.15
2022-10-07T09:07:55.313Z,73.81
2022-10-07T09:10:34.564Z,72.92
2022-10-07T09:13:12.877Z,72.41
2022-10-07T09:16:02.604Z,71.62
2022-10-07T09:18:36.055Z,71.72
2022-10-07T09:21:08.761Z,70.76
2022-10-07T09:23:37.489Z,70.48
2022-10-07T09:26:10.771Z,70.10
2022-10-07T09:28:41.518Z,69.76
2022-10-07T09:31:16.356Z,69.55
2022-10-07T09:33:49.724Z,68.45
2022-10-07T09:36:20.286Z,68.25
2022-10-07T09:38:52.736Z,67.83
2022-10-07T09:41:29.046Z,68.00
2022-10-07T09:44:08.344Z,68.48
2022-10-07T09:46:46.952Z,68.72
2022-10-07T09:49:39.839Z,68.43
2022-10-07T09:52:17.907Z,67.84
2022-10-07T09:54:48.523Z,66.61
2022-10-07T09:57:29.064Z,66.13
2022-10-07T10:00:19.342Z,65.80
2022-10-07T10:02:52.364Z,65.31
2022-10-07T10:05:28.769Z,64.68
2022-10-07T10:08:09.697Z,63.26
2022-10-07T10:10:38.697Z,63.33
2022-10-07T10:13:08.440Z,63.34
2022-10-07T10:15:43.792Z,62.50
2022-10-07T10:18:36.251Z,62.57
2022-10-07T10:21:17.539Z,62.06
2022-10-07T10:23:48.320Z,62.06
2022-10-07T10:26:37.883Z,61.78
2022-10-07T10:29:18.300Z,61.54
2022-10-07T10:32:06.369Z,61.38
2022-10-07T10:34:47.171Z,61.43
2022-10-07T10:37:20.601Z,61.51
2022-10-07T10:40:04.278Z,61.03
2022-10-07T10:42:46.240Z,61.01
2022-10-07T10:45:27.872Z,60.36
2022-10-07T10:48:16.071Z,59.35
2022-10-07T10:50:55.018Z,58.53
2022-10-07T10:53:37.468Z,59.03
2022-10-07T10:56:29.851Z,58.90
2022-10-07T10:59:19.438Z,58.89
2022-10-07T11:01:55.623Z,58.87
2022-10-07T11:04:36.113Z,58.48
2022-10-07T11:07:09.552Z,57.90
2022-10-07T11:09:42.459Z,58.11
2022-10-07T11:12:22.592Z,57.66
2022-10-07T11:14:57.927Z,57.47
2022-10-07T11:17:32.341Z,57.44
2022-10-07T11:20:15.460Z,57.77
2022-10-07T11:22:52.913Z,58.04
2022-10-07T11:25:30.149Z,57.33
2022-10-07T11:28:08.816Z,57.27
2022-10-07T11:30:49.773Z,57.37
2022-10-07T11:33:24.431Z,57.13
2022-10-07T11:35:59.211Z,57.01
2022-10-07T11:38:34.064Z,56.04
2022-10-07T11:41:06.230Z,55.57
2022-10-07T11:43:42.214Z,55.81
2022-10-07T11:46:17.528Z,56.04
2022-10-07T11:48:50.229Z,56.29
2022-10-07T11:51:26.083Z,55.54
2022-10-07T11:53:59.965Z,55.28
2022-10-07T11:56:29.860Z,54.76
2022-10-07T11:59:02.404Z,55.15
2022-10-07T12:01:53.756Z,55.42
2022-10-07T12:04:37.353Z,55.60
2022-10-07T12:07:27.743Z,55.53
2022-10-07T12:10:20.638Z,55.21
2022-10-07T12:12:52.443Z,55.63
2022-10-07T12:15:31.029Z,55.32
2022-10-07T12:18:25.654Z,55.45
2022-10-07T12:21:06.282Z,55.33
2022-10-07T12:23:49.045Z,55.14
2022-10-07T12:26:45.437Z,54.50
2022-10-07T12:29:40.412Z,54.65
2022-10-07T12:32:35.302Z,55.19
2022-10-07T12:35:29.675Z,55.36
2022-10-07T12:38:04.946Z,55.08
2022-10-07T12:40:37.185Z,55.22
2022-10-07T12:43:18.335Z,54.76
2022-10-07T12:45:47.918Z,54.45
2022-10-07T12:48:21.846Z,54.49
2022-10-07T12:50:54.279Z,54.56
2022-10-07T12:53:28.163Z,54.76
2022-10-07T12:55:57.873Z,54.48
2022-10-07T12:59:05.634Z,54.70
2022-10-07T13:01:50.715Z,54.07
2022-10-07T13:04:38.740Z,54.24
2022-10-07T13:07:40.253Z,54.68
2022-10-07T13:10:27.704Z,55.30
2022-10-07T13:13:01.483Z,54.50
2022-10-07T13:15:41.533Z,55.07
2022-10-07T13:18:18.755Z,55.41
2022-10-07T13:21:06.115Z,55.42
2022-10-07T13:23:36.440Z,55.84
2022-10-07T13:26:05.505Z,55.61
2022-10-07T13:28:40.429Z,55.40
2022-10-07T13:31:22.138Z,55.17
2022-10-07T13:33:52.469Z,54.99
2022-10-07T13:36:24.221Z,55.11
2022-10-07T13:38:55.277Z,54.94
2022-10-07T13:41:27.717Z,54.68
2022-10-07T13:44:00.991Z,54.77
2022-10-07T13:46:34.047Z,55.05
2022-10-07T13:49:04.759Z,55.24
2022-10-07T13:51:37.057Z,55.68
2022-10-07T13:54:09.038Z,55.82
2022-10-07T13:56:41.838Z,56.22
2022-10-07T13:59:19.040Z,56.08
2022-10-07T14:01:52.762Z,56.10
2022-10-07T14:04:25.739Z,56.36
2022-10-07T14:07:10.398Z,56.30
2022-10-07T14:09:46.147Z,56.60
2022-10-07T14:12:22.381Z,56.94
2022-10-07T14:14:54.678Z,57.04
2022-10-07T14:17:34.367Z,56.96
2022-10-07T14:20:06.174Z,56.92
2022-10-07T14:22:39.033Z,56.83
2022-10-07T14:25:18.058Z,56.81
2022-10-07T14:28:16.515Z,56.81
2022-10-07T14:30:57.145Z,57.09
2022-10-07T14:33:46.198Z,57.79
2022-10-07T14:36:17.378Z,58.38
2022-10-07T14:38:48.176Z,58.14
2022-10-07T14:41:19.051Z,58.47
2022-10-07T14:43:50.481Z,58.78
2022-10-07T14:46:21.951Z,58.92
2022-10-07T14:48:54.599Z,59.21
2022-10-07T14:51:27.302Z,59.49
2022-10-07T14:54:02.566Z,60.08
2022-10-07T14:56:35.244Z,60.27
2022-10-07T14:59:04.076Z,60.85
2022-10-07T15:01:32.801Z,60.94
2022-10-07T15:04:03.287Z,61.04
2022-10-07T15:06:32.080Z,61.07
2022-10-07T15:09:00.811Z,61.48
2022-10-07T15:11:29.409Z,61.71
2022-10-07T15:13:57.896Z,62.20
2022-10-07T15:16:29.266Z,62.29
2022-10-07T15:18:58.023Z,62.65
2022-10-07T15:21:29.263Z,62.95
2022-10-07T15:23:58.710Z,63.29
2022-10-07T15:26:27.392Z,63.49
2022-10-07T15:28:58.195Z,63.70
2022-10-07T15:31:29.404Z,63.92
2022-10-07T15:33:58.900Z,63.88
2022-10-07T15:36:32.516Z,64.11
2022-10-07T15:39:02.454Z,64.49
2022-10-07T15:41:36.604Z,64.58
2022-10-07T15:44:07.652Z,64.74
2022-10-07T15:46:36.883Z,65.21
2022-10-07T15:49:05.852Z,65.28
2022-10-07T15:51:36.790Z,65.82
2022-10-07T15:54:06.978Z,66.02
2022-10-07T15:56:35.775Z,66.68
2022-10-07T15:59:04.974Z,67.59
2022-10-07T16:01:33.756Z,67.92
2022-10-07T16:04:04.034Z,68.94
2022-10-07T16:06:36.350Z,69.75
2022-10-07T16:09:05.900Z,71.00
2022-10-07T16:11:35.934Z,71.08
2022-10-07T16:14:05.410Z,71.69
2022-10-07T16:16:34.300Z,72.23
2022-10-07T16:19:03.883Z,72.77
2022-10-07T16:21:33.452Z,73.22
2022-10-07T16:24:04.878Z,73.56
2022-10-07T16:26:35.947Z,73.81
2022-10-07T16:29:16.880Z,73.93
2022-10-07T16:31:47.134Z,74.41
2022-10-07T16:34:16.883Z,74.34
2022-10-07T16:36:47.940Z,74.67
2022-10-07T16:39:19.337Z,74.72
2022-10-07T16:41:49.057Z,75.03
2022-10-07T16:44:17.642Z,75.06
2022-10-07T16:46:46.324Z,75.39
2022-10-07T16:49:17.282Z,75.54
2022-10-07T16:51:46.691Z,75.75
2022-10-07T16:54:18.505Z,75.68
2022-10-07T16:56:48.406Z,76.26
2022-10-07T16:59:22.935Z,76.29
2022-10-07T17:01:54.747Z,76.33
2022-10-07T17:04:24.891Z,76.60
2022-10-07T17:06:54.062Z,76.60
2022-10-07T17:09:25.632Z,77.04
2022-10-07T17:11:54.762Z,77.28
2022-10-07T17:14:24.204Z,77.50
2022-10-07T17:16:56.854Z,77.61
2022-10-07T17:19:28.323Z,78.06
2022-10-07T17:21:59.777Z,78.19
2022-10-07T17:24:30.195Z,78.55
2022-10-07T17:26:58.897Z,78.86
2022-10-07T17:29:29.712Z,78.62
2022-10-07T17:31:58.351Z,78.70
2022-10-07T17:34:26.772Z,79.03
2022-10-07T17:36:55.460Z,79.29
2022-10-07T17:39:24.149Z,79.01
2022-10-07T17:41:54.423Z,79.39
2022-10-07T17:44:23.061Z,79.44
2022-10-07T17:46:51.488Z,79.67
2022-10-07T17:49:21.133Z,79.87
2022-10-07T17:51:49.663Z,80.13
2022-10-07T17:54:18.292Z,79.94
2022-10-07T17:56:48.063Z,80.34
2022-10-07T17:59:18.513Z,80.45
2022-10-07T18:01:48.051Z,80.46
2022-10-07T18:04:23.706Z,80.50
2022-10-07T18:06:53.369Z,80.77
2022-10-07T18:09:23.034Z,80.43
2022-10-07T18:12:01.427Z,80.73
2022-10-07T18:14:41.736Z,81.03
2022-10-07T18:17:12.459Z,81.26
2022-10-07T18:19:41.470Z,81.75
2022-10-07T18:22:10.228Z,81.19
2022-10-07T18:24:39.145Z,81.36
2022-10-07T18:27:07.822Z,81.45
2022-10-07T18:29:38.562Z,81.70
2022-10-07T18:32:08.538Z,81.81
2022-10-07T18:34:37.322Z,81.75
2022-10-07T18:37:06.033Z,81.81
2022-10-07T18:39:34.595Z,81.77
2022-10-07T18:42:04.635Z,81.59
2022-10-07T18:44:33.001Z,81.50
2022-10-07T18:47:03.133Z,81.29
2022-10-07T18:49:31.681Z,81.38
2022-10-07T18:52:00.302Z,81.74
2022-10-07T18:54:29.092Z,81.66
2022-10-07T18:56:57.635Z,81.76
2022-10-07T18:59:29.322Z,81.08
2022-10-07T19:01:58.051Z,81.44
2022-10-07T19:04:30.759Z,81.20
2022-10-07T19:06:59.422Z,81.48
2022-10-07T19:09:27.984Z,81.49
2022-10-07T19:11:56.550Z,81.13
2022-10-07T19:14:26.380Z,81.55
2022-10-07T19:16:55.082Z,81.27
2022-10-07T19:19:25.893Z,81.60
2022-10-07T19:21:57.950Z,81.11
2022-10-07T19:24:46.977Z,81.32
2022-10-07T19:27:15.643Z,81.41
2022-10-07T19:29:44.112Z,81.38
2022-10-07T19:32:14.465Z,82.02
2022-10-07T19:34:42.752Z,81.47
2022-10-07T19:37:12.775Z,81.84
2022-10-07T19:39:41.342Z,82.03
2022-10-07T19:42:09.896Z,81.92
2022-10-07T19:44:38.661Z,82.38
2022-10-07T19:47:07.180Z,81.99
2022-10-07T19:49:37.662Z,82.49
2022-10-07T19:52:06.401Z,82.42
2022-10-07T19:54:39.912Z,82.26
2022-10-07T19:57:08.463Z,82.40
2022-10-07T19:59:36.981Z,82.69
2022-10-07T20:02:06.586Z,82.31
2022-10-07T20:04:35.603Z,82.47
2022-10-07T20:07:04.325Z,82.89
2022-10-07T20:09:32.962Z,82.62
2022-10-07T20:12:05.024Z,83.20
2022-10-07T20:14:35.525Z,82.87
2022-10-07T20:17:04.087Z,83.20
2022-10-07T20:19:32.694Z,83.18
2022-10-07T20:22:02.237Z,83.55
2022-10-07T20:24:30.863Z,83.56
2022-10-07T20:26:59.404Z,83.50
2022-10-07T20:29:29.514Z,83.41
2022-10-07T20:31:58.160Z,83.68
2022-10-07T20:34:26.910Z,83.84
2022-10-07T20:36:56.353Z,83.71
2022-10-07T20:39:34.589Z,83.88
2022-10-07T20:42:13.511Z,83.43
2022-10-07T20:44:43.398Z,83.49
2022-10-07T20:47:12.224Z,83.47
2022-10-07T20:49:42.382Z,83.94
2022-10-07T20:52:13.315Z,83.87
2022-10-07T20:54:41.933Z,83.76
2022-10-07T20:57:13.781Z,83.73
2022-10-07T20:59:44.166Z,83.65
2022-10-07T21:02:14.853Z,83.71
2022-10-07T21:04:43.517Z,83.68
2022-10-07T21:07:12.171Z,84.06
2022-10-07T21:09:40.834Z,83.90
2022-10-07T21:12:11.884Z,84.17
2022-10-07T21:14:42.485Z,83.71
2022-10-07T21:17:13.223Z,83.88
2022-10-07T21:19:41.993Z,84.10
2022-10-07T21:22:10.874Z,83.85
2022-10-07T21:24:39.454Z,84.27
2022-10-07T21:27:08.902Z,84.23
2022-10-07T21:29:41.083Z,84.62
2022-10-07T21:32:10.995Z,84.39
2022-10-07T21:34:41.002Z,84.29
2022-10-07T21:37:09.573Z,84.72
2022-10-07T21:39:38.401Z,83.98
2022-10-07T21:42:07.154Z,84.32
2022-10-07T21:44:35.766Z,84.14
2022-10-07T21:47:05.421Z,83.92
2022-10-07T21:49:34.138Z,84.11
2022-10-07T21:52:04.145Z,83.88
2022-10-07T21:54:32.784Z,84.10
2022-10-07T21:57:01.782Z,84.03
2022-10-07T21:59:33.863Z,83.87
2022-10-07T22:02:02.950Z,84.13
2022-10-07T22:04:31.706Z,84.08
2022-10-07T22:07:11.307Z,83.98
2022-10-07T22:09:41.329Z,83.98
2022-10-07T22:12:09.842Z,83.73
2022-10-07T22:14:39.752Z,83.70
2022-10-07T22:17:09.406Z,83.85
2022-10-07T22:19:38.012Z,83.67
2022-10-07T22:22:07.076Z,84.08
2022-10-07T22:24:35.881Z,84.09
2022-10-07T22:27:06.055Z,84.12
2022-10-07T22:29:34.606Z,84.47
2022-10-07T22:32:03.122Z,84.44
2022-10-07T22:34:40.713Z,84.69
2022-10-07T22:37:09.326Z,84.32
2022-10-07T22:39:37.853Z,84.46
2022-10-07T22:42:08.047Z,84.54
2022-10-07T22:44:36.665Z,84.71
2022-10-07T22:47:05.343Z,84.64
2022-10-07T22:49:34.013Z,84.68
2022-10-07T22:52:02.643Z,84.65
2022-10-07T22:54:31.324Z,84.87
2022-10-07T22:57:00.059Z,85.03
2022-10-07T22:59:30.154Z,84.97
2022-10-07T23:01:58.821Z,84.83
2022-10-07T23:04:27.515Z,84.61
2022-10-07T23:06:56.144Z,84.65
2022-10-07T23:09:24.774Z,84.57
2022-10-07T23:11:53.425Z,84.74
2022-10-07T23:14:22.016Z,84.63
2022-10-07T23:16:52.416Z,84.83
2022-10-07T23:19:21.254Z,84.64
2022-10-07T23:21:49.945Z,84.72
2022-10-07T23:24:18.474Z,84.92
2022-10-07T23:26:46.919Z,84.71
2022-10-07T23:29:15.646Z,84.97
2022-10-07T23:31:45.088Z,84.91
2022-10-07T23:34:15.685Z,84.96
2022-10-07T23:36:44.231Z,84.99
2022-10-07T23:39:13.933Z,85.03
2022-10-07T23:41:42.332Z,85.07
2022-10-07T23:44:10.895Z,84.98
2022-10-07T23:46:39.869Z,84.99
2022-10-07T23:49:08.426Z,84.88
2022-10-07T23:51:38.533Z,84.96
2022-10-07T23:54:07.253Z,84.85
2022-10-07T23:56:35.874Z,84.99
2022-10-07T23:59:04.531Z,85.11
